sensor_id;sensor_type;location;lat;lon;timestamp;P1;durP1;ratioP1;P2;durP2;ratioP2
53040;SDS011;39326;42.650;23.248;2022-12-24T00:00:22;13.37;;;11.60;;
53040;SDS011;39326;42.650;23.248;2022-12-24T00:02:52;13.80;;;11.07;;
53040;SDS011;39326;42.650;23.248;2022-12-24T00:05:18;14.87;;;10.93;;
53040;SDS011;39326;42.650;23.248;2022-12-24T00:07:43;12.63;;;10.43;;
53040;SDS011;39326;42.650;23.248;2022-12-24T00:10:09;15.27;;;12.23;;
53040;SDS011;39326;42.650;23.248;2022-12-24T00:12:35;13.20;;;10.50;;
53040;SDS011;39326;42.650;23.248;2022-12-24T00:15:01;12.23;;;10.97;;
53040;SDS011;39326;42.650;23.248;2022-12-24T00:17:28;15.30;;;11.23;;
53040;SDS011;39326;42.650;23.248;2022-12-24T00:19:54;13.47;;;12.07;;
53040;SDS011;39326;42.650;23.248;2022-12-24T00:22:19;12.93;;;11.23;;
53040;SDS011;39326;42.650;23.248;2022-12-24T00:24:45;13.17;;;11.43;;
53040;SDS011;39326;42.650;23.248;2022-12-24T00:27:10;13.60;;;11.23;;
53040;SDS011;39326;42.650;23.248;2022-12-24T00:29:36;14.37;;;10.90;;
53040;SDS011;39326;42.650;23.248;2022-12-24T00:32:02;15.47;;;12.13;;
53040;SDS011;39326;42.650;23.248;2022-12-24T00:34:32;12.47;;;11.17;;
53040;SDS011;39326;42.650;23.248;2022-12-24T00:36:58;13.90;;;10.90;;
53040;SDS011;39326;42.650;23.248;2022-12-24T00:39:23;12.63;;;11.10;;
53040;SDS011;39326;42.650;23.248;2022-12-24T00:41:49;12.97;;;10.87;;
53040;SDS011;39326;42.650;23.248;2022-12-24T00:44:15;11.20;;;10.00;;
53040;SDS011;39326;42.650;23.248;2022-12-24T00:46:41;10.50;;;9.40;;
53040;SDS011;39326;42.650;23.248;2022-12-24T00:49:07;11.77;;;9.30;;
53040;SDS011;39326;42.650;23.248;2022-12-24T00:51:34;13.80;;;10.77;;
53040;SDS011;39326;42.650;23.248;2022-12-24T00:54:00;12.47;;;10.40;;
53040;SDS011;39326;42.650;23.248;2022-12-24T00:56:26;12.57;;;9.80;;
53040;SDS011;39326;42.650;23.248;2022-12-24T00:58:52;12.17;;;10.70;;
53040;SDS011;39326;42.650;23.248;2022-12-24T01:01:19;12.17;;;10.30;;
53040;SDS011;39326;42.650;23.248;2022-12-24T01:03:45;11.27;;;9.43;;
53040;SDS011;39326;42.650;23.248;2022-12-24T01:06:12;10.60;;;9.50;;
53040;SDS011;39326;42.650;23.248;2022-12-24T01:08:40;11.10;;;8.60;;
53040;SDS011;39326;42.650;23.248;2022-12-24T01:11:07;9.93;;;8.47;;
53040;SDS011;39326;42.650;23.248;2022-12-24T01:13:33;9.57;;;8.57;;
53040;SDS011;39326;42.650;23.248;2022-12-24T01:15:59;12.40;;;8.83;;
53040;SDS011;39326;42.650;23.248;2022-12-24T01:18:25;8.23;;;7.43;;
53040;SDS011;39326;42.650;23.248;2022-12-24T01:20:59;8.70;;;7.80;;
53040;SDS011;39326;42.650;23.248;2022-12-24T01:23:27;9.60;;;8.53;;
53040;SDS011;39326;42.650;23.248;2022-12-24T01:25:54;8.73;;;7.90;;
53040;SDS011;39326;42.650;23.248;2022-12-24T01:28:20;11.07;;;8.27;;
53040;SDS011;39326;42.650;23.248;2022-12-24T01:30:46;8.50;;;7.40;;
53040;SDS011;39326;42.650;23.248;2022-12-24T01:33:13;9.73;;;8.10;;
53040;SDS011;39326;42.650;23.248;2022-12-24T01:35:39;9.50;;;8.50;;
53040;SDS011;39326;42.650;23.248;2022-12-24T01:38:05;10.23;;;8.20;;
53040;SDS011;39326;42.650;23.248;2022-12-24T01:40:31;9.50;;;8.13;;
53040;SDS011;39326;42.650;23.248;2022-12-24T01:43:16;7.40;;;6.57;;
53040;SDS011;39326;42.650;23.248;2022-12-24T01:45:55;6.77;;;6.03;;
53040;SDS011;39326;42.650;23.248;2022-12-24T01:48:39;6.43;;;5.27;;
53040;SDS011;39326;42.650;23.248;2022-12-24T01:51:15;7.10;;;5.43;;
53040;SDS011;39326;42.650;23.248;2022-12-24T01:53:51;5.53;;;4.93;;
53040;SDS011;39326;42.650;23.248;2022-12-24T01:56:21;8.10;;;6.33;;
53040;SDS011;39326;42.650;23.248;2022-12-24T01:58:50;7.33;;;6.60;;
53040;SDS011;39326;42.650;23.248;2022-12-24T02:01:20;6.27;;;5.63;;
53040;SDS011;39326;42.650;23.248;2022-12-24T02:03:46;6.80;;;6.17;;
53040;SDS011;39326;42.650;23.248;2022-12-24T02:06:12;7.67;;;6.87;;
53040;SDS011;39326;42.650;23.248;2022-12-24T02:08:41;6.83;;;6.20;;
53040;SDS011;39326;42.650;23.248;2022-12-24T02:13:52;8.20;;;6.80;;
53040;SDS011;39326;42.650;23.248;2022-12-24T02:38:19;6.23;;;5.63;;
53040;SDS011;39326;42.650;23.248;2022-12-24T02:40:57;6.27;;;5.67;;
53040;SDS011;39326;42.650;23.248;2022-12-24T02:43:31;5.73;;;5.20;;
53040;SDS011;39326;42.650;23.248;2022-12-24T02:46:01;6.87;;;4.80;;
53040;SDS011;39326;42.650;23.248;2022-12-24T02:48:34;6.90;;;5.70;;
53040;SDS011;39326;42.650;23.248;2022-12-24T02:51:03;5.43;;;4.93;;
53040;SDS011;39326;42.650;23.248;2022-12-24T02:53:31;6.50;;;5.70;;
53040;SDS011;39326;42.650;23.248;2022-12-24T03:04:30;10.67;;;9.60;;
53040;SDS011;39326;42.650;23.248;2022-12-24T03:12:27;14.17;;;10.53;;
53040;SDS011;39326;42.650;23.248;2022-12-24T03:14:58;9.30;;;8.40;;
53040;SDS011;39326;42.650;23.248;2022-12-24T03:17:25;11.63;;;8.53;;
53040;SDS011;39326;42.650;23.248;2022-12-24T03:19:51;10.47;;;9.10;;
53040;SDS011;39326;42.650;23.248;2022-12-24T03:22:18;10.13;;;8.90;;
53040;SDS011;39326;42.650;23.248;2022-12-24T03:24:46;11.90;;;10.13;;
53040;SDS011;39326;42.650;23.248;2022-12-24T03:27:12;13.53;;;10.73;;
53040;SDS011;39326;42.650;23.248;2022-12-24T03:29:40;12.20;;;10.90;;
53040;SDS011;39326;42.650;23.248;2022-12-24T03:32:06;13.77;;;10.50;;
53040;SDS011;39326;42.650;23.248;2022-12-24T03:34:32;13.77;;;11.20;;
53040;SDS011;39326;42.650;23.248;2022-12-24T03:36:58;11.97;;;10.20;;
53040;SDS011;39326;42.650;23.248;2022-12-24T03:39:23;13.13;;;9.57;;
53040;SDS011;39326;42.650;23.248;2022-12-24T03:41:49;11.10;;;10.00;;
53040;SDS011;39326;42.650;23.248;2022-12-24T03:44:15;9.90;;;8.90;;
53040;SDS011;39326;42.650;23.248;2022-12-24T03:46:41;10.43;;;7.97;;
53040;SDS011;39326;42.650;23.248;2022-12-24T03:49:06;8.67;;;7.83;;
53040;SDS011;39326;42.650;23.248;2022-12-24T03:51:33;11.97;;;10.33;;
53040;SDS011;39326;42.650;23.248;2022-12-24T03:53:59;12.07;;;10.30;;
53040;SDS011;39326;42.650;23.248;2022-12-24T03:56:25;11.37;;;10.10;;
53040;SDS011;39326;42.650;23.248;2022-12-24T03:58:51;11.87;;;10.00;;
53040;SDS011;39326;42.650;23.248;2022-12-24T04:01:17;10.47;;;9.37;;
53040;SDS011;39326;42.650;23.248;2022-12-24T04:03:43;11.50;;;9.83;;
53040;SDS011;39326;42.650;23.248;2022-12-24T04:06:10;11.27;;;10.07;;
53040;SDS011;39326;42.650;23.248;2022-12-24T04:08:38;12.63;;;9.50;;
53040;SDS011;39326;42.650;23.248;2022-12-24T04:11:05;11.60;;;10.40;;
53040;SDS011;39326;42.650;23.248;2022-12-24T04:13:33;11.07;;;9.83;;
53040;SDS011;39326;42.650;23.248;2022-12-24T04:15:59;11.47;;;10.27;;
53040;SDS011;39326;42.650;23.248;2022-12-24T04:18:27;10.43;;;9.23;;
53040;SDS011;39326;42.650;23.248;2022-12-24T04:20:53;10.40;;;8.70;;
53040;SDS011;39326;42.650;23.248;2022-12-24T04:23:19;9.43;;;8.20;;
53040;SDS011;39326;42.650;23.248;2022-12-24T04:25:45;8.73;;;7.70;;
53040;SDS011;39326;42.650;23.248;2022-12-24T04:28:11;7.53;;;6.33;;
53040;SDS011;39326;42.650;23.248;2022-12-24T04:30:38;7.23;;;6.53;;
53040;SDS011;39326;42.650;23.248;2022-12-24T04:33:05;6.87;;;6.13;;
53040;SDS011;39326;42.650;23.248;2022-12-24T04:35:30;6.90;;;5.73;;
53040;SDS011;39326;42.650;23.248;2022-12-24T04:37:57;8.27;;;7.57;;
53040;SDS011;39326;42.650;23.248;2022-12-24T04:40:23;10.93;;;7.50;;
53040;SDS011;39326;42.650;23.248;2022-12-24T04:42:50;8.80;;;7.90;;
53040;SDS011;39326;42.650;23.248;2022-12-24T04:45:16;7.70;;;6.80;;
53040;SDS011;39326;42.650;23.248;2022-12-24T04:47:42;8.90;;;7.93;;
53040;SDS011;39326;42.650;23.248;2022-12-24T04:50:08;8.73;;;7.83;;
53040;SDS011;39326;42.650;23.248;2022-12-24T04:52:34;8.60;;;7.73;;
53040;SDS011;39326;42.650;23.248;2022-12-24T04:55:00;8.57;;;7.67;;
53040;SDS011;39326;42.650;23.248;2022-12-24T04:57:26;8.97;;;8.07;;
53040;SDS011;39326;42.650;23.248;2022-12-24T04:59:54;8.97;;;7.90;;
53040;SDS011;39326;42.650;23.248;2022-12-24T05:02:20;8.63;;;7.77;;
53040;SDS011;39326;42.650;23.248;2022-12-24T05:04:46;7.23;;;6.53;;
53040;SDS011;39326;42.650;23.248;2022-12-24T05:07:11;7.57;;;6.50;;
53040;SDS011;39326;42.650;23.248;2022-12-24T05:09:37;6.53;;;5.93;;
53040;SDS011;39326;42.650;23.248;2022-12-24T05:12:02;6.73;;;6.03;;
53040;SDS011;39326;42.650;23.248;2022-12-24T05:14:28;7.40;;;6.70;;
53040;SDS011;39326;42.650;23.248;2022-12-24T05:16:54;7.90;;;6.27;;
53040;SDS011;39326;42.650;23.248;2022-12-24T05:19:19;7.93;;;7.13;;
53040;SDS011;39326;42.650;23.248;2022-12-24T05:21:45;9.80;;;7.27;;
53040;SDS011;39326;42.650;23.248;2022-12-24T05:24:30;6.83;;;6.07;;
53040;SDS011;39326;42.650;23.248;2022-12-24T05:27:15;8.97;;;8.07;;
53040;SDS011;39326;42.650;23.248;2022-12-24T05:29:40;10.17;;;9.00;;
53040;SDS011;39326;42.650;23.248;2022-12-24T05:32:06;10.23;;;9.13;;
53040;SDS011;39326;42.650;23.248;2022-12-24T05:34:31;9.87;;;8.87;;
53040;SDS011;39326;42.650;23.248;2022-12-24T05:36:57;8.27;;;7.33;;
53040;SDS011;39326;42.650;23.248;2022-12-24T05:39:23;9.77;;;8.43;;
53040;SDS011;39326;42.650;23.248;2022-12-24T05:41:48;9.20;;;7.67;;
53040;SDS011;39326;42.650;23.248;2022-12-24T05:44:14;9.70;;;8.40;;
53040;SDS011;39326;42.650;23.248;2022-12-24T05:46:41;8.97;;;7.87;;
53040;SDS011;39326;42.650;23.248;2022-12-24T05:49:07;11.63;;;10.03;;
53040;SDS011;39326;42.650;23.248;2022-12-24T05:51:32;11.33;;;10.03;;
53040;SDS011;39326;42.650;23.248;2022-12-24T05:53:59;11.20;;;10.10;;
53040;SDS011;39326;42.650;23.248;2022-12-24T05:56:25;10.83;;;9.80;;
53040;SDS011;39326;42.650;23.248;2022-12-24T05:58:51;11.53;;;10.13;;
53040;SDS011;39326;42.650;23.248;2022-12-24T06:01:18;11.40;;;10.37;;
53040;SDS011;39326;42.650;23.248;2022-12-24T06:03:43;9.13;;;8.20;;
53040;SDS011;39326;42.650;23.248;2022-12-24T06:06:10;7.47;;;6.73;;
53040;SDS011;39326;42.650;23.248;2022-12-24T06:08:38;9.03;;;7.00;;
53040;SDS011;39326;42.650;23.248;2022-12-24T06:11:06;7.47;;;6.67;;
53040;SDS011;39326;42.650;23.248;2022-12-24T06:13:34;7.93;;;7.10;;
53040;SDS011;39326;42.650;23.248;2022-12-24T06:16:00;7.47;;;6.87;;
53040;SDS011;39326;42.650;23.248;2022-12-24T06:18:28;6.87;;;6.23;;
53040;SDS011;39326;42.650;23.248;2022-12-24T06:20:55;6.77;;;6.07;;
53040;SDS011;39326;42.650;23.248;2022-12-24T06:23:22;6.47;;;5.87;;
53040;SDS011;39326;42.650;23.248;2022-12-24T06:25:48;6.73;;;6.13;;
53040;SDS011;39326;42.650;23.248;2022-12-24T06:28:15;7.67;;;6.67;;
53040;SDS011;39326;42.650;23.248;2022-12-24T06:30:44;7.23;;;6.47;;
53040;SDS011;39326;42.650;23.248;2022-12-24T06:33:11;8.10;;;6.83;;
53040;SDS011;39326;42.650;23.248;2022-12-24T06:35:36;7.63;;;6.83;;
53040;SDS011;39326;42.650;23.248;2022-12-24T06:38:02;7.90;;;7.10;;
53040;SDS011;39326;42.650;23.248;2022-12-24T06:40:28;7.00;;;6.33;;
53040;SDS011;39326;42.650;23.248;2022-12-24T06:42:53;13.97;;;12.27;;
53040;SDS011;39326;42.650;23.248;2022-12-24T06:45:19;12.80;;;11.40;;
53040;SDS011;39326;42.650;23.248;2022-12-24T06:47:45;8.87;;;7.43;;
53040;SDS011;39326;42.650;23.248;2022-12-24T06:50:10;12.33;;;9.30;;
53040;SDS011;39326;42.650;23.248;2022-12-24T06:52:36;9.33;;;8.43;;
53040;SDS011;39326;42.650;23.248;2022-12-24T06:55:02;12.37;;;10.43;;
53040;SDS011;39326;42.650;23.248;2022-12-24T06:57:28;17.77;;;15.50;;
53040;SDS011;39326;42.650;23.248;2022-12-24T06:59:56;20.03;;;17.63;;
53040;SDS011;39326;42.650;23.248;2022-12-24T07:02:22;24.20;;;20.20;;
53040;SDS011;39326;42.650;23.248;2022-12-24T07:04:48;19.90;;;17.80;;
53040;SDS011;39326;42.650;23.248;2022-12-24T07:07:14;17.87;;;15.97;;
53040;SDS011;39326;42.650;23.248;2022-12-24T07:09:39;11.00;;;9.53;;
53040;SDS011;39326;42.650;23.248;2022-12-24T07:12:05;9.90;;;8.90;;
53040;SDS011;39326;42.650;23.248;2022-12-24T07:14:31;9.30;;;8.40;;
53040;SDS011;39326;42.650;23.248;2022-12-24T07:16:57;10.00;;;8.37;;
53040;SDS011;39326;42.650;23.248;2022-12-24T07:19:22;11.40;;;9.70;;
53040;SDS011;39326;42.650;23.248;2022-12-24T07:21:48;12.07;;;10.17;;
53040;SDS011;39326;42.650;23.248;2022-12-24T07:24:14;13.00;;;11.70;;
53040;SDS011;39326;42.650;23.248;2022-12-24T07:26:40;12.83;;;11.33;;
53040;SDS011;39326;42.650;23.248;2022-12-24T07:29:05;13.40;;;12.00;;
53040;SDS011;39326;42.650;23.248;2022-12-24T07:31:31;15.80;;;13.77;;
53040;SDS011;39326;42.650;23.248;2022-12-24T07:33:56;15.70;;;14.10;;
53040;SDS011;39326;42.650;23.248;2022-12-24T07:36:22;15.77;;;14.17;;
53040;SDS011;39326;42.650;23.248;2022-12-24T07:38:48;17.93;;;15.87;;
53040;SDS011;39326;42.650;23.248;2022-12-24T07:41:15;18.73;;;16.77;;
53040;SDS011;39326;42.650;23.248;2022-12-24T07:43:40;17.27;;;15.57;;
53040;SDS011;39326;42.650;23.248;2022-12-24T07:46:06;16.63;;;14.93;;
53040;SDS011;39326;42.650;23.248;2022-12-24T07:48:32;17.40;;;15.40;;
53040;SDS011;39326;42.650;23.248;2022-12-24T07:50:58;17.90;;;16.03;;
53040;SDS011;39326;42.650;23.248;2022-12-24T07:53:25;20.10;;;18.10;;
53040;SDS011;39326;42.650;23.248;2022-12-24T07:55:51;19.57;;;17.57;;
53040;SDS011;39326;42.650;23.248;2022-12-24T07:58:17;22.30;;;19.80;;
53040;SDS011;39326;42.650;23.248;2022-12-24T08:00:43;23.73;;;21.27;;
53040;SDS011;39326;42.650;23.248;2022-12-24T08:03:26;23.77;;;21.30;;
53040;SDS011;39326;42.650;23.248;2022-12-24T08:05:52;24.53;;;21.93;;
53040;SDS011;39326;42.650;23.248;2022-12-24T08:08:18;23.13;;;20.67;;
53040;SDS011;39326;42.650;23.248;2022-12-24T08:10:44;20.73;;;18.63;;
53040;SDS011;39326;42.650;23.248;2022-12-24T08:13:10;22.13;;;19.83;;
53040;SDS011;39326;42.650;23.248;2022-12-24T08:15:35;31.80;;;28.13;;
53040;SDS011;39326;42.650;23.248;2022-12-24T08:18:02;27.23;;;24.20;;
53040;SDS011;39326;42.650;23.248;2022-12-24T08:20:27;24.80;;;21.77;;
53040;SDS011;39326;42.650;23.248;2022-12-24T08:22:53;26.93;;;24.13;;
53040;SDS011;39326;42.650;23.248;2022-12-24T08:25:19;26.50;;;22.80;;
53040;SDS011;39326;42.650;23.248;2022-12-24T08:27:45;29.73;;;26.70;;
53040;SDS011;39326;42.650;23.248;2022-12-24T08:30:11;32.00;;;28.67;;
53040;SDS011;39326;42.650;23.248;2022-12-24T08:32:37;35.33;;;31.73;;
53040;SDS011;39326;42.650;23.248;2022-12-24T08:35:03;37.27;;;33.67;;
53040;SDS011;39326;42.650;23.248;2022-12-24T08:37:29;30.20;;;27.17;;
53040;SDS011;39326;42.650;23.248;2022-12-24T08:39:55;31.73;;;28.43;;
53040;SDS011;39326;42.650;23.248;2022-12-24T08:42:21;33.87;;;30.47;;
53040;SDS011;39326;42.650;23.248;2022-12-24T08:44:47;36.33;;;32.97;;
53040;SDS011;39326;42.650;23.248;2022-12-24T08:47:12;32.17;;;28.87;;
53040;SDS011;39326;42.650;23.248;2022-12-24T08:49:38;31.10;;;28.10;;
53040;SDS011;39326;42.650;23.248;2022-12-24T08:52:04;33.40;;;30.10;;
53040;SDS011;39326;42.650;23.248;2022-12-24T08:54:29;36.27;;;32.70;;
53040;SDS011;39326;42.650;23.248;2022-12-24T08:56:55;34.57;;;31.07;;
53040;SDS011;39326;42.650;23.248;2022-12-24T08:59:21;36.30;;;32.60;;
53040;SDS011;39326;42.650;23.248;2022-12-24T09:01:46;40.90;;;36.73;;
53040;SDS011;39326;42.650;23.248;2022-12-24T09:04:12;44.07;;;39.73;;
53040;SDS011;39326;42.650;23.248;2022-12-24T09:06:38;42.03;;;37.67;;
53040;SDS011;39326;42.650;23.248;2022-12-24T09:09:03;46.13;;;41.30;;
53040;SDS011;39326;42.650;23.248;2022-12-24T09:11:29;41.67;;;37.37;;
53040;SDS011;39326;42.650;23.248;2022-12-24T09:13:55;34.83;;;31.37;;
53040;SDS011;39326;42.650;23.248;2022-12-24T09:16:21;21.73;;;19.47;;
53040;SDS011;39326;42.650;23.248;2022-12-24T09:18:47;24.70;;;22.33;;
53040;SDS011;39326;42.650;23.248;2022-12-24T09:21:13;20.77;;;18.87;;
53040;SDS011;39326;42.650;23.248;2022-12-24T09:23:40;37.30;;;34.13;;
53040;SDS011;39326;42.650;23.248;2022-12-24T09:26:21;23.77;;;21.63;;
53040;SDS011;39326;42.650;23.248;2022-12-24T09:28:48;23.80;;;21.70;;
53040;SDS011;39326;42.650;23.248;2022-12-24T09:31:15;22.43;;;20.33;;
53040;SDS011;39326;42.650;23.248;2022-12-24T09:33:41;22.67;;;19.50;;
53040;SDS011;39326;42.650;23.248;2022-12-24T09:36:09;21.47;;;19.40;;
53040;SDS011;39326;42.650;23.248;2022-12-24T09:38:35;24.50;;;22.40;;
53040;SDS011;39326;42.650;23.248;2022-12-24T09:41:10;21.57;;;19.57;;
53040;SDS011;39326;42.650;23.248;2022-12-24T09:43:38;24.33;;;21.87;;
53040;SDS011;39326;42.650;23.248;2022-12-24T09:48:45;18.33;;;16.37;;
53040;SDS011;39326;42.650;23.248;2022-12-24T09:51:20;21.23;;;18.93;;
53040;SDS011;39326;42.650;23.248;2022-12-24T09:56:47;32.97;;;29.63;;
53040;SDS011;39326;42.650;23.248;2022-12-24T09:59:17;33.63;;;30.33;;
53040;SDS011;39326;42.650;23.248;2022-12-24T10:01:47;32.93;;;29.47;;
53040;SDS011;39326;42.650;23.248;2022-12-24T10:04:16;35.53;;;31.97;;
53040;SDS011;39326;42.650;23.248;2022-12-24T10:15:24;45.87;;;41.20;;
53040;SDS011;39326;42.650;23.248;2022-12-24T10:18:01;43.00;;;38.50;;
53040;SDS011;39326;42.650;23.248;2022-12-24T10:23:40;45.67;;;40.60;;
53040;SDS011;39326;42.650;23.248;2022-12-24T10:28:49;43.17;;;38.87;;
53040;SDS011;39326;42.650;23.248;2022-12-24T10:34:23;42.77;;;38.33;;
53040;SDS011;39326;42.650;23.248;2022-12-24T10:36:54;40.17;;;35.90;;
53040;SDS011;39326;42.650;23.248;2022-12-24T10:39:24;44.40;;;39.60;;
53040;SDS011;39326;42.650;23.248;2022-12-24T10:41:52;48.90;;;43.47;;
53040;SDS011;39326;42.650;23.248;2022-12-24T10:44:22;43.73;;;39.13;;
53040;SDS011;39326;42.650;23.248;2022-12-24T10:46:52;41.97;;;37.07;;
53040;SDS011;39326;42.650;23.248;2022-12-24T10:49:20;44.93;;;40.33;;
53040;SDS011;39326;42.650;23.248;2022-12-24T10:54:24;47.50;;;42.57;;
53040;SDS011;39326;42.650;23.248;2022-12-24T10:56:54;51.17;;;45.20;;
53040;SDS011;39326;42.650;23.248;2022-12-24T11:01:48;57.13;;;50.87;;
53040;SDS011;39326;42.650;23.248;2022-12-24T11:04:24;59.73;;;49.73;;
53040;SDS011;39326;42.650;23.248;2022-12-24T11:06:56;63.63;;;56.80;;
53040;SDS011;39326;42.650;23.248;2022-12-24T11:09:28;64.80;;;57.10;;
53040;SDS011;39326;42.650;23.248;2022-12-24T11:11:57;62.43;;;55.70;;
53040;SDS011;39326;42.650;23.248;2022-12-24T11:14:24;70.30;;;62.23;;
53040;SDS011;39326;42.650;23.248;2022-12-24T11:16:57;70.77;;;63.50;;
53040;SDS011;39326;42.650;23.248;2022-12-24T11:19:34;68.90;;;61.97;;
53040;SDS011;39326;42.650;23.248;2022-12-24T11:22:04;68.10;;;59.60;;
53040;SDS011;39326;42.650;23.248;2022-12-24T11:24:35;65.13;;;57.90;;
53040;SDS011;39326;42.650;23.248;2022-12-24T11:29:49;62.13;;;55.60;;
53040;SDS011;39326;42.650;23.248;2022-12-24T11:32:17;65.27;;;58.37;;
53040;SDS011;39326;42.650;23.248;2022-12-24T11:34:46;73.57;;;65.93;;
53040;SDS011;39326;42.650;23.248;2022-12-24T11:37:17;68.27;;;61.07;;
53040;SDS011;39326;42.650;23.248;2022-12-24T11:39:47;66.77;;;59.50;;
53040;SDS011;39326;42.650;23.248;2022-12-24T11:42:27;72.43;;;64.83;;
53040;SDS011;39326;42.650;23.248;2022-12-24T11:45:02;73.97;;;66.00;;
53040;SDS011;39326;42.650;23.248;2022-12-24T11:47:35;69.50;;;62.00;;
53040;SDS011;39326;42.650;23.248;2022-12-24T11:50:19;76.50;;;68.43;;
53040;SDS011;39326;42.650;23.248;2022-12-24T11:52:50;74.60;;;67.17;;
53040;SDS011;39326;42.650;23.248;2022-12-24T11:55:23;71.23;;;63.73;;
53040;SDS011;39326;42.650;23.248;2022-12-24T12:00:25;69.87;;;62.23;;
53040;SDS011;39326;42.650;23.248;2022-12-24T12:02:51;70.37;;;63.03;;
53040;SDS011;39326;42.650;23.248;2022-12-24T12:05:22;73.97;;;66.30;;
53040;SDS011;39326;42.650;23.248;2022-12-24T12:07:58;74.50;;;66.63;;
53040;SDS011;39326;42.650;23.248;2022-12-24T12:10:38;74.47;;;66.57;;
53040;SDS011;39326;42.650;23.248;2022-12-24T12:13:07;76.30;;;68.40;;
53040;SDS011;39326;42.650;23.248;2022-12-24T12:15:41;71.23;;;63.80;;
53040;SDS011;39326;42.650;23.248;2022-12-24T12:18:15;61.33;;;54.97;;
53040;SDS011;39326;42.650;23.248;2022-12-24T12:20:47;58.93;;;52.80;;
53040;SDS011;39326;42.650;23.248;2022-12-24T12:28:36;45.70;;;41.13;;
53040;SDS011;39326;42.650;23.248;2022-12-24T12:36:42;83.93;;;75.27;;
53040;SDS011;39326;42.650;23.248;2022-12-24T12:39:11;84.17;;;75.47;;
53040;SDS011;39326;42.650;23.248;2022-12-24T12:50:02;52.57;;;47.17;;
53040;SDS011;39326;42.650;23.248;2022-12-24T12:58:11;39.53;;;34.00;;
53040;SDS011;39326;42.650;23.248;2022-12-24T13:00:46;34.03;;;30.33;;
53040;SDS011;39326;42.650;23.248;2022-12-24T13:14:10;23.30;;;20.80;;
53040;SDS011;39326;42.650;23.248;2022-12-24T13:16:55;20.93;;;18.73;;
53040;SDS011;39326;42.650;23.248;2022-12-24T13:22:02;12.83;;;11.50;;
53040;SDS011;39326;42.650;23.248;2022-12-24T13:24:28;12.50;;;9.63;;
53040;SDS011;39326;42.650;23.248;2022-12-24T13:27:05;16.73;;;15.03;;
53040;SDS011;39326;42.650;23.248;2022-12-24T13:29:41;14.07;;;12.57;;
53040;SDS011;39326;42.650;23.248;2022-12-24T13:37:45;9.37;;;8.37;;
53040;SDS011;39326;42.650;23.248;2022-12-24T13:50:42;3.73;;;3.43;;
53040;SDS011;39326;42.650;23.248;2022-12-24T13:56:19;4.57;;;4.17;;
53040;SDS011;39326;42.650;23.248;2022-12-24T13:58:50;7.17;;;5.20;;
53040;SDS011;39326;42.650;23.248;2022-12-24T14:01:31;5.43;;;4.77;;
53040;SDS011;39326;42.650;23.248;2022-12-24T14:04:01;6.43;;;5.77;;
53040;SDS011;39326;42.650;23.248;2022-12-24T14:06:34;6.30;;;4.80;;
53040;SDS011;39326;42.650;23.248;2022-12-24T14:09:13;4.23;;;3.83;;
53040;SDS011;39326;42.650;23.248;2022-12-24T14:14:32;4.47;;;3.60;;
53040;SDS011;39326;42.650;23.248;2022-12-24T14:17:00;3.53;;;3.23;;
53040;SDS011;39326;42.650;23.248;2022-12-24T14:19:29;3.60;;;3.30;;
53040;SDS011;39326;42.650;23.248;2022-12-24T14:25:03;4.20;;;3.80;;
53040;SDS011;39326;42.650;23.248;2022-12-24T14:32:44;7.13;;;5.67;;
53040;SDS011;39326;42.650;23.248;2022-12-24T14:35:14;7.13;;;6.47;;
53040;SDS011;39326;42.650;23.248;2022-12-24T14:40:47;8.60;;;7.27;;
53040;SDS011;39326;42.650;23.248;2022-12-24T14:48:50;5.67;;;4.53;;
53040;SDS011;39326;42.650;23.248;2022-12-24T14:57:34;4.87;;;4.30;;
53040;SDS011;39326;42.650;23.248;2022-12-24T14:59:46;5.30;;;4.00;;
53040;SDS011;39326;42.650;23.248;2022-12-24T15:05:11;4.73;;;4.33;;
53040;SDS011;39326;42.650;23.248;2022-12-24T15:07:44;5.63;;;4.30;;
53040;SDS011;39326;42.650;23.248;2022-12-24T15:13:00;5.37;;;4.80;;
53040;SDS011;39326;42.650;23.248;2022-12-24T15:15:31;7.90;;;7.20;;
53040;SDS011;39326;42.650;23.248;2022-12-24T15:17:58;5.87;;;5.37;;
53040;SDS011;39326;42.650;23.248;2022-12-24T15:20:24;5.47;;;4.97;;
53040;SDS011;39326;42.650;23.248;2022-12-24T15:22:53;9.63;;;7.93;;
53040;SDS011;39326;42.650;23.248;2022-12-24T15:27:50;33.57;;;26.07;;
53040;SDS011;39326;42.650;23.248;2022-12-24T15:30:18;35.50;;;26.57;;
53040;SDS011;39326;42.650;23.248;2022-12-24T15:32:45;13.00;;;10.03;;
53040;SDS011;39326;42.650;23.248;2022-12-24T15:35:31;11.03;;;9.20;;
53040;SDS011;39326;42.650;23.248;2022-12-24T15:38:26;8.70;;;7.70;;
53040;SDS011;39326;42.650;23.248;2022-12-24T15:40:56;5.50;;;3.90;;
53040;SDS011;39326;42.650;23.248;2022-12-24T15:43:22;4.43;;;3.80;;
53040;SDS011;39326;42.650;23.248;2022-12-24T15:45:49;5.07;;;4.53;;
53040;SDS011;39326;42.650;23.248;2022-12-24T15:48:21;6.63;;;6.03;;
53040;SDS011;39326;42.650;23.248;2022-12-24T15:50:52;4.47;;;4.07;;
53040;SDS011;39326;42.650;23.248;2022-12-24T15:53:36;4.20;;;3.80;;
53040;SDS011;39326;42.650;23.248;2022-12-24T15:56:11;3.00;;;2.70;;
53040;SDS011;39326;42.650;23.248;2022-12-24T15:58:51;4.00;;;3.30;;
53040;SDS011;39326;42.650;23.248;2022-12-24T16:06:13;4.33;;;3.33;;
53040;SDS011;39326;42.650;23.248;2022-12-24T16:08:39;3.27;;;2.93;;
53040;SDS011;39326;42.650;23.248;2022-12-24T16:11:10;3.80;;;3.40;;
53040;SDS011;39326;42.650;23.248;2022-12-24T16:14:03;3.57;;;3.27;;
53040;SDS011;39326;42.650;23.248;2022-12-24T16:16:33;3.87;;;3.53;;
53040;SDS011;39326;42.650;23.248;2022-12-24T16:19:01;3.80;;;2.80;;
53040;SDS011;39326;42.650;23.248;2022-12-24T16:21:30;2.70;;;2.50;;
53040;SDS011;39326;42.650;23.248;2022-12-24T16:24:16;5.27;;;4.80;;
53040;SDS011;39326;42.650;23.248;2022-12-24T16:26:47;5.03;;;2.73;;
53040;SDS011;39326;42.650;23.248;2022-12-24T16:29:13;2.70;;;2.50;;
53040;SDS011;39326;42.650;23.248;2022-12-24T16:31:46;3.77;;;2.43;;
53040;SDS011;39326;42.650;23.248;2022-12-24T16:34:15;2.87;;;2.40;;
53040;SDS011;39326;42.650;23.248;2022-12-24T16:36:44;2.50;;;2.30;;
53040;SDS011;39326;42.650;23.248;2022-12-24T16:39:15;2.33;;;2.13;;
53040;SDS011;39326;42.650;23.248;2022-12-24T16:41:51;3.77;;;2.30;;
53040;SDS011;39326;42.650;23.248;2022-12-24T16:44:40;2.17;;;1.97;;
53040;SDS011;39326;42.650;23.248;2022-12-24T16:47:10;2.30;;;2.10;;
53040;SDS011;39326;42.650;23.248;2022-12-24T16:49:46;3.00;;;1.73;;
53040;SDS011;39326;42.650;23.248;2022-12-24T16:52:19;3.40;;;1.93;;
53040;SDS011;39326;42.650;23.248;2022-12-24T16:54:46;2.83;;;2.23;;
53040;SDS011;39326;42.650;23.248;2022-12-24T16:57:12;3.30;;;3.00;;
53040;SDS011;39326;42.650;23.248;2022-12-24T16:59:38;3.33;;;2.70;;
53040;SDS011;39326;42.650;23.248;2022-12-24T17:02:03;4.10;;;3.23;;
53040;SDS011;39326;42.650;23.248;2022-12-24T17:04:30;2.93;;;2.73;;
53040;SDS011;39326;42.650;23.248;2022-12-24T17:06:56;3.40;;;3.10;;
53040;SDS011;39326;42.650;23.248;2022-12-24T17:09:22;3.60;;;3.30;;
53040;SDS011;39326;42.650;23.248;2022-12-24T17:11:47;5.50;;;4.07;;
53040;SDS011;39326;42.650;23.248;2022-12-24T17:14:12;3.60;;;3.30;;
53040;SDS011;39326;42.650;23.248;2022-12-24T17:16:38;5.23;;;4.00;;